Time;durP1;ratioP1;P1;durP2;ratioP2;P2;SDS_P1;SDS_P2;PMS_P1;PMS_P2;Temp;Humidity;BMP_temperature;BMP_pressure;BME280_temperature;BME280_humidity;BME280_pressure;Samples;Min_cycle;Max_cycle;Signal;HPM_P1;HPM_P2
2023/10/20 00:00:29;;;;;;;4.20;3.03;;;;;12.90;93324.00;;;;5072418;28;20202;-54
2023/10/20 00:02:56;;;;;;;1.60;1.50;;;;;12.90;93321.00;;;;5072335;28;20243;-55
2023/10/20 00:05:25;;;;;;;2.30;2.10;;;;;12.90;93320.00;;;;5075212;28;20651;-55
2023/10/20 00:07:53;;;;;;;1.63;1.63;;;;;12.80;93325.00;;;;5075926;28;20195;-56
2023/10/20 00:10:21;;;;;;;2.43;2.23;;;;;12.80;93323.00;;;;5075959;28;20196;-56
2023/10/20 00:12:48;;;;;;;1.77;1.67;;;;;12.80;93321.00;;;;5075863;28;20238;-56
2023/10/20 00:15:17;;;;;;;2.27;2.17;;;;;12.80;93317.00;;;;5076131;28;20522;-55
2023/10/20 00:17:44;;;;;;;1.80;1.70;;;;;12.90;93317.00;;;;5075780;28;20673;-55
2023/10/20 00:20:12;;;;;;;1.97;1.87;;;;;12.90;93305.00;;;;5076010;28;20199;-56
2023/10/20 00:22:41;;;;;;;1.47;1.40;;;;;12.90;93301.00;;;;5075855;28;20218;-56
2023/10/20 00:25:11;;;;;;;0.97;0.97;;;;;12.90;93314.00;;;;5075688;28;20234;-55
2023/10/20 00:27:38;;;;;;;1.40;1.33;;;;;13.00;93314.00;;;;5076322;28;20275;-55
2023/10/20 00:30:07;;;;;;;2.83;1.37;;;;;12.90;93307.00;;;;5075479;28;20562;-55
2023/10/20 00:32:35;;;;;;;1.13;1.13;;;;;12.90;93299.00;;;;5075789;28;20207;-55
2023/10/20 00:35:03;;;;;;;1.13;1.13;;;;;12.90;93292.00;;;;5075488;28;20198;-55
2023/10/20 00:37:31;;;;;;;1.03;0.97;;;;;13.10;93294.00;;;;5075370;28;20270;-55
2023/10/20 00:40:00;;;;;;;1.40;1.30;;;;;13.10;93292.00;;;;5075355;28;20223;-55
2023/10/20 00:42:28;;;;;;;1.53;1.43;;;;;12.90;93284.00;;;;5075071;28;20223;-55
2023/10/20 00:44:56;;;;;;;1.53;1.43;;;;;12.90;93286.00;;;;5075169;28;20248;-55
2023/10/20 00:47:24;;;;;;;1.30;1.30;;;;;12.90;93277.00;;;;5075134;28;20203;-55
2023/10/20 00:49:51;;;;;;;1.90;1.40;;;;;12.90;93271.00;;;;5075122;28;20274;-55
2023/10/20 00:52:19;;;;;;;1.10;1.10;;;;;12.90;93270.00;;;;5075168;28;20212;-55
2023/10/20 00:54:47;;;;;;;1.33;1.23;;;;;12.90;93258.00;;;;5075064;28;20191;-55
2023/10/20 00:57:16;;;;;;;1.17;1.17;;;;;12.90;93262.00;;;;5074965;28;20671;-55
2023/10/20 00:59:44;;;;;;;1.30;1.30;;;;;12.90;93246.00;;;;5075058;28;20195;-57
2023/10/20 01:02:12;;;;;;;1.70;1.60;;;;;12.90;93237.00;;;;5074610;28;20281;-55
2023/10/20 01:04:39;;;;;;;1.67;1.57;;;;;12.90;93223.00;;;;5074907;28;20222;-56
2023/10/20 01:07:07;;;;;;;1.83;1.73;;;;;12.90;93230.00;;;;5074722;28;20192;-53
2023/10/20 01:09:34;;;;;;;1.20;1.20;;;;;12.80;93224.00;;;;5074036;28;20196;-54
2023/10/20 01:12:03;;;;;;;2.00;1.90;;;;;12.80;93209.00;;;;5074536;28;20215;-56
2023/10/20 01:14:32;;;;;;;1.70;1.60;;;;;12.80;93210.00;;;;5074787;28;20592;-55
2023/10/20 01:16:59;;;;;;;1.40;1.40;;;;;12.80;93216.00;;;;5074123;28;20645;-55
2023/10/20 01:19:26;;;;;;;2.23;1.97;;;;;12.80;93227.00;;;;5074864;28;20553;-55
2023/10/20 01:21:54;;;;;;;1.10;1.10;;;;;12.70;93221.00;;;;5074511;28;20261;-55
2023/10/20 01:24:22;;;;;;;1.90;1.30;;;;;12.70;93206.00;;;;5074248;28;20195;-55
2023/10/20 01:26:50;;;;;;;1.60;1.50;;;;;12.70;93200.00;;;;5074757;28;20598;-55
2023/10/20 01:29:17;;;;;;;12.10;2.23;;;;;12.70;93185.00;;;;5074346;28;20188;-55
2023/10/20 01:31:44;;;;;;;1.70;1.60;;;;;12.70;93175.00;;;;5074513;28;20211;-55
2023/10/20 01:34:12;;;;;;;1.57;1.20;;;;;12.80;93165.00;;;;5074498;28;20196;-55
2023/10/20 01:36:39;;;;;;;1.70;1.60;;;;;12.80;93157.00;;;;5074333;28;20651;-55
2023/10/20 01:39:08;;;;;;;1.30;1.30;;;;;12.80;93153.00;;;;5074268;28;20187;-55
2023/10/20 01:41:37;;;;;;;1.43;1.43;;;;;12.80;93135.00;;;;5072587;28;20215;-55
2023/10/20 01:44:04;;;;;;;2.23;2.03;;;;;12.80;93133.00;;;;5074393;28;20229;-57
2023/10/20 01:46:31;;;;;;;1.60;1.50;;;;;12.80;93122.00;;;;5074107;28;20261;-55
2023/10/20 01:48:59;;;;;;;1.60;1.53;;;;;12.80;93117.00;;;;5073885;28;20191;-55
2023/10/20 01:51:26;;;;;;;1.53;1.43;;;;;12.80;93112.00;;;;5073787;28;20250;-55
2023/10/20 01:53:55;;;;;;;1.17;1.17;;;;;12.70;93104.00;;;;5074066;28;20184;-55
2023/10/20 01:56:23;;;;;;;1.87;1.77;;;;;12.70;93087.00;;;;5073712;28;20685;-57
2023/10/20 01:58:52;;;;;;;1.20;1.20;;;;;12.60;93085.00;;;;5073536;28;20191;-55
2023/10/20 02:01:22;;;;;;;1.87;1.70;;;;;12.60;93084.00;;;;5073629;28;20306;-55
2023/10/20 02:03:51;;;;;;;1.83;1.73;;;;;12.70;93070.00;;;;5073434;28;20246;-55
2023/10/20 02:06:18;;;;;;;1.73;1.63;;;;;12.60;93068.00;;;;5072296;28;20192;-55
2023/10/20 02:08:45;;;;;;;0.93;0.93;;;;;12.70;93040.00;;;;5073874;28;20203;-55
2023/10/20 02:11:13;;;;;;;1.07;1.07;;;;;12.70;93045.00;;;;5073338;28;20211;-55
2023/10/20 02:13:42;;;;;;;2.57;2.37;;;;;12.60;93038.00;;;;5073430;28;20531;-55
2023/10/20 02:16:11;;;;;;;1.10;1.10;;;;;12.60;93038.00;;;;5073418;28;20721;-55
2023/10/20 02:18:39;;;;;;;1.27;1.27;;;;;12.70;93029.00;;;;5073555;28;20277;-55
2023/10/20 02:21:07;;;;;;;1.53;1.43;;;;;12.60;93013.00;;;;5073458;28;20188;-55
2023/10/20 02:23:36;;;;;;;1.90;1.80;;;;;12.60;93001.00;;;;5073683;28;20215;-55
2023/10/20 02:26:05;;;;;;;3.37;3.07;;;;;12.60;93002.00;;;;5073493;28;20191;-55
2023/10/20 02:28:33;;;;;;;1.80;1.70;;;;;12.60;93004.00;;;;5073263;28;20199;-55
2023/10/20 02:31:01;;;;;;;1.57;1.47;;;;;12.50;93010.00;;;;5073071;28;20195;-55
2023/10/20 02:33:31;;;;;;;2.00;1.90;;;;;12.50;93008.00;;;;5073186;28;20191;-55
2023/10/20 02:35:58;;;;;;;2.93;1.57;;;;;12.50;93023.00;;;;5073545;28;20742;-55
2023/10/20 02:38:26;;;;;;;0.90;0.90;;;;;12.50;93026.00;;;;5073739;28;20191;-55
2023/10/20 02:40:54;;;;;;;1.30;1.30;;;;;12.50;92992.00;;;;5072965;28;20191;-55
2023/10/20 02:43:23;;;;;;;1.83;1.73;;;;;12.50;93038.00;;;;5073032;28;20219;-55
2023/10/20 02:45:51;;;;;;;1.70;1.60;;;;;12.60;93052.00;;;;5072928;28;20195;-55
2023/10/20 02:48:18;;;;;;;0.87;0.87;;;;;12.60;93064.00;;;;5073367;28;20191;-55
2023/10/20 02:50:47;;;;;;;2.07;1.97;;;;;12.50;93055.00;;;;5072905;28;20191;-55
2023/10/20 02:53:15;;;;;;;1.30;1.30;;;;;12.60;93064.00;;;;5072977;28;20188;-55
2023/10/20 02:55:43;;;;;;;2.00;1.83;;;;;12.60;93064.00;;;;5072828;28;20646;-55
2023/10/20 02:58:10;;;;;;;1.90;1.07;;;;;12.70;93061.00;;;;5072874;28;20199;-55
2023/10/20 03:00:42;;;;;;;0.90;0.90;;;;;12.70;93043.00;;;;5072965;28;20593;-55
2023/10/20 03:03:11;;;;;;;1.23;1.13;;;;;12.70;93024.00;;;;5072952;28;20234;-55
2023/10/20 03:05:39;;;;;;;0.90;0.90;;;;;12.70;93011.00;;;;5072851;28;20203;-55
2023/10/20 03:08:09;;;;;;;1.60;1.50;;;;;12.70;92999.00;;;;5072855;28;20195;-55
2023/10/20 03:10:36;;;;;;;1.17;1.17;;;;;12.60;92994.00;;;;5072820;28;20736;-55
2023/10/20 03:13:05;;;;;;;0.80;0.80;;;;;12.60;92986.00;;;;5072868;28;20234;-55
2023/10/20 03:15:32;;;;;;;1.30;1.30;;;;;12.70;92974.00;;;;5072855;28;20229;-55
2023/10/20 03:18:00;;;;;;;0.93;0.93;;;;;12.70;92964.00;;;;5073197;28;20666;-55
2023/10/20 03:20:30;;;;;;;0.73;0.73;;;;;12.80;92951.00;;;;5071351;28;20203;-55
2023/10/20 03:22:57;;;;;;;1.03;1.03;;;;;12.80;92955.00;;;;5072646;28;20701;-55
2023/10/20 03:25:27;;;;;;;1.17;1.17;;;;;12.80;92935.00;;;;5072713;28;20188;-55
2023/10/20 03:27:54;;;;;;;1.20;1.20;;;;;12.80;92931.00;;;;5072832;28;20246;-55
2023/10/20 03:30:22;;;;;;;1.50;1.40;;;;;12.80;92916.00;;;;5072596;28;20199;-55
2023/10/20 03:32:51;;;;;;;0.83;0.83;;;;;12.80;92905.00;;;;5072935;28;20219;-55
2023/10/20 03:35:18;;;;;;;1.17;1.17;;;;;12.80;92895.00;;;;5072723;28;20195;-55
2023/10/20 03:37:46;;;;;;;0.80;0.80;;;;;12.80;92880.00;;;;5072505;28;20219;-55
2023/10/20 03:40:16;;;;;;;1.50;1.40;;;;;12.80;92863.00;;;;5075095;28;20198;-55
2023/10/20 03:42:45;;;;;;;1.87;1.77;;;;;12.70;92846.00;;;;5076264;28;20223;-55
2023/10/20 03:45:14;;;;;;;0.90;0.90;;;;;12.70;92845.00;;;;5076298;28;20219;-55
2023/10/20 03:47:43;;;;;;;1.30;1.30;;;;;12.70;92847.00;;;;5076338;28;20195;-55
2023/10/20 03:50:15;;;;;;;1.60;1.50;;;;;12.70;92839.00;;;;5076287;28;20202;-55
2023/10/20 03:52:45;;;;;;;1.07;1.07;;;;;12.70;92832.00;;;;5076148;28;20242;-55
2023/10/20 03:55:14;;;;;;;0.93;0.93;;;;;12.70;92835.00;;;;5076568;28;20554;-55
2023/10/20 03:57:44;;;;;;;1.10;1.10;;;;;12.80;92838.00;;;;5076590;28;20223;-56
2023/10/20 04:00:20;;;;;;;1.13;1.13;;;;;12.70;92836.00;;;;5076122;28;20187;-56
2023/10/20 04:02:48;;;;;;;6.23;5.67;;;;;12.60;92837.00;;;;5075842;28;20247;-56
2023/10/20 04:05:16;;;;;;;5.73;3.77;;;;;12.60;92814.00;;;;5076227;28;20192;-56
2023/10/20 04:07:43;;;;;;;2.73;2.53;;;;;12.60;92811.00;;;;5076334;28;20221;-56
2023/10/20 04:10:12;;;;;;;1.73;1.63;;;;;12.80;92796.00;;;;5075874;28;20191;-56
2023/10/20 04:12:41;;;;;;;1.30;1.30;;;;;12.70;92787.00;;;;5075815;28;20211;-56
2023/10/20 04:15:14;;;;;;;0.87;0.87;;;;;12.70;92775.00;;;;5074892;28;20240;-56
2023/10/20 04:17:45;;;;;;;0.90;0.90;;;;;12.60;92775.00;;;;5075995;28;20179;-56
2023/10/20 04:20:18;;;;;;;1.20;1.20;;;;;12.60;92777.00;;;;5075938;28;20195;-56
2023/10/20 04:22:50;;;;;;;1.33;1.33;;;;;12.50;92769.00;;;;5075857;28;20292;-56
2023/10/20 04:25:18;;;;;;;1.20;1.10;;;;;12.70;92767.00;;;;5074897;28;20198;-56
2023/10/20 04:27:50;;;;;;;0.97;0.97;;;;;12.80;92758.00;;;;5075576;28;20191;-56
2023/10/20 04:58:20;;;;;;;2.37;1.50;;;;;12.50;92659.00;;;;5032844;28;20215;-56
2023/10/20 05:00:55;;;;;;;1.17;1.17;;;;;12.50;92649.00;;;;5056713;28;20496;-56
2023/10/20 05:03:31;;;;;;;2.33;1.70;;;;;12.50;92646.00;;;;5074774;28;20218;-56
2023/10/20 05:06:19;;;;;;;1.23;1.23;;;;;12.50;92651.00;;;;5074866;28;20232;-56
2023/10/20 05:08:47;;;;;;;1.80;1.67;;;;;12.50;92638.00;;;;5074989;28;20531;-55
2023/10/20 05:11:15;;;;;;;2.10;1.67;;;;;12.50;92630.00;;;;5074868;28;20215;-55
2023/10/20 05:13:43;;;;;;;2.63;2.00;;;;;12.50;92620.00;;;;5075115;28;20188;-56
2023/10/20 05:16:10;;;;;;;1.53;1.43;;;;;12.50;92612.00;;;;5074906;28;20576;-55
2023/10/20 05:18:39;;;;;;;0.87;0.87;;;;;12.60;92610.00;;;;5074866;28;20219;-55
2023/10/20 05:21:11;;;;;;;2.07;1.97;;;;;12.50;92614.00;;;;5074623;28;20249;-56
2023/10/20 05:23:39;;;;;;;0.90;0.90;;;;;12.50;92611.00;;;;5074966;28;20199;-56
2023/10/20 05:26:06;;;;;;;0.90;0.90;;;;;12.50;92598.00;;;;5074325;28;20187;-56
2023/10/20 05:28:34;;;;;;;1.33;1.23;;;;;12.50;92584.00;;;;5074287;28;20191;-56
2023/10/20 05:31:02;;;;;;;0.83;0.83;;;;;12.50;92563.00;;;;5074216;28;20594;-56
2023/10/20 05:33:30;;;;;;;0.70;0.70;;;;;12.50;92542.00;;;;5074193;28;20681;-56
2023/10/20 05:36:04;;;;;;;1.43;0.97;;;;;12.50;92546.00;;;;5074903;28;20278;-56
2023/10/20 05:38:31;;;;;;;1.30;1.30;;;;;12.40;92549.00;;;;5074510;28;20632;-56
2023/10/20 05:41:00;;;;;;;0.60;0.60;;;;;12.40;92539.00;;;;5074403;28;20191;-56
2023/10/20 05:43:30;;;;;;;1.63;1.57;;;;;12.50;92536.00;;;;5074218;28;20215;-58
2023/10/20 05:45:57;;;;;;;1.23;1.23;;;;;12.40;92536.00;;;;5074266;28;20195;-56
2023/10/20 05:48:24;;;;;;;1.50;1.40;;;;;12.40;92510.00;;;;5074203;28;20203;-56
2023/10/20 05:50:57;;;;;;;0.90;0.90;;;;;12.50;92461.00;;;;5074303;28;20198;-56
2023/10/20 05:53:26;;;;;;;3.07;2.70;;;;;12.50;92497.00;;;;5074099;28;20194;-56
2023/10/20 05:55:53;;;;;;;2.23;2.13;;;;;12.50;92500.00;;;;5073800;28;20198;-56
2023/10/20 05:58:22;;;;;;;1.37;1.37;;;;;12.50;92490.00;;;;5073877;28;20202;-56
2023/10/20 06:00:49;;;;;;;1.23;1.17;;;;;12.40;92494.00;;;;5073632;28;20270;-56
2023/10/20 06:03:18;;;;;;;1.77;1.63;;;;;12.40;92484.00;;;;5073063;28;20211;-56
2023/10/20 06:05:45;;;;;;;1.03;1.03;;;;;12.30;92472.00;;;;5072601;28;20202;-56
2023/10/20 06:08:12;;;;;;;1.43;1.33;;;;;12.30;92473.00;;;;5073982;28;20210;-56
2023/10/20 06:10:42;;;;;;;1.40;1.40;;;;;12.30;92456.00;;;;5073653;28;20659;-56
2023/10/20 06:13:09;;;;;;;0.90;0.90;;;;;12.40;92431.00;;;;5073471;28;20211;-56
2023/10/20 06:15:39;;;;;;;1.30;1.27;;;;;12.40;92420.00;;;;5073395;28;20211;-56
2023/10/20 06:18:07;;;;;;;1.07;1.07;;;;;12.30;92428.00;;;;5073628;28;20191;-56
2023/10/20 06:20:40;;;;;;;1.20;1.20;;;;;12.40;92435.00;;;;5073382;28;20191;-56
2023/10/20 06:23:07;;;;;;;2.40;2.20;;;;;12.30;92429.00;;;;5073207;28;20242;-55
2023/10/20 06:25:35;;;;;;;1.63;1.53;;;;;12.30;92429.00;;;;5073356;28;20191;-55
2023/10/20 06:28:06;;;;;;;2.47;1.83;;;;;12.30;92418.00;;;;5073566;28;20282;-56
2023/10/20 06:30:37;;;;;;;1.80;1.70;;;;;12.30;92414.00;;;;5073547;28;20215;-55
2023/10/20 06:33:16;;;;;;;1.50;1.40;;;;;12.30;92404.00;;;;5073334;28;20211;-56
2023/10/20 06:35:53;;;;;;;1.63;1.53;;;;;12.40;92392.00;;;;5073936;28;20183;-56
2023/10/20 06:38:30;;;;;;;1.73;1.63;;;;;12.40;92405.00;;;;5073688;28;20207;-56
2023/10/20 06:40:58;;;;;;;1.50;1.50;;;;;12.50;92405.00;;;;5073300;28;20210;-56
2023/10/20 06:43:26;;;;;;;1.43;1.40;;;;;12.50;92420.00;;;;5073162;28;20215;-55
2023/10/20 06:45:57;;;;;;;1.10;1.10;;;;;12.60;92411.00;;;;5073463;28;20727;-55
2023/10/20 06:48:26;;;;;;;1.80;1.70;;;;;12.60;92391.00;;;;5073455;28;20195;-54
2023/10/20 06:50:54;;;;;;;1.00;1.00;;;;;12.60;92383.00;;;;5073254;28;20184;-55
2023/10/20 06:53:21;;;;;;;2.03;1.73;;;;;12.70;92376.00;;;;5073069;28;20272;-55
2023/10/20 06:55:49;;;;;;;1.90;1.80;;;;;12.60;92362.00;;;;5071796;28;20191;-55
2023/10/20 06:58:18;;;;;;;1.27;1.23;;;;;12.60;92370.00;;;;5073260;28;20528;-55
2023/10/20 07:00:47;;;;;;;1.83;1.73;;;;;12.70;92375.00;;;;5072999;28;20270;-55
2023/10/20 07:03:15;;;;;;;1.43;1.33;;;;;12.70;92386.00;;;;5073050;28;20227;-55
2023/10/20 07:05:43;;;;;;;1.20;1.20;;;;;12.70;92361.00;;;;5073323;28;20245;-55
2023/10/20 07:08:13;;;;;;;1.00;1.00;;;;;12.80;92359.00;;;;5072899;28;20274;-55
2023/10/20 07:10:41;;;;;;;1.27;1.17;;;;;12.80;92350.00;;;;5071540;28;20191;-55
2023/10/20 07:13:11;;;;;;;1.50;1.43;;;;;12.80;92355.00;;;;5072718;28;20698;-55
2023/10/20 07:15:40;;;;;;;2.23;2.03;;;;;12.90;92360.00;;;;5076781;28;20199;-55
2023/10/20 07:18:11;;;;;;;1.70;1.60;;;;;12.90;92365.00;;;;5075866;28;20647;-55
2023/10/20 07:20:39;;;;;;;4.50;2.50;;;;;13.00;92361.00;;;;5076922;28;20183;-55
2023/10/20 07:23:07;;;;;;;1.33;1.23;;;;;12.90;92368.00;;;;5076586;28;20210;-55
2023/10/20 07:25:37;;;;;;;1.37;1.33;;;;;13.00;92366.00;;;;5076880;28;20610;-55
2023/10/20 07:28:05;;;;;;;1.70;1.60;;;;;13.00;92376.00;;;;5075327;28;20676;-55
2023/10/20 07:30:34;;;;;;;1.27;1.27;;;;;13.00;92373.00;;;;5076636;28;20196;-55
2023/10/20 07:33:03;;;;;;;3.60;1.73;;;;;13.00;92377.00;;;;5076957;28;20215;-55
2023/10/20 07:35:32;;;;;;;1.83;1.70;;;;;13.10;92377.00;;;;5076621;28;20187;-55
2023/10/20 07:37:59;;;;;;;1.83;1.30;;;;;13.10;92393.00;;;;5076442;28;20672;-55
2023/10/20 07:40:34;;;;;;;1.00;1.00;;;;;13.10;92395.00;;;;5076694;28;20214;-55
2023/10/20 07:43:03;;;;;;;1.40;1.40;;;;;13.10;92389.00;;;;5076428;28;20217;-55
2023/10/20 07:45:31;;;;;;;1.30;1.30;;;;;13.10;92392.00;;;;5076299;28;20218;-55
2023/10/20 07:47:58;;;;;;;1.27;1.23;;;;;13.10;92402.00;;;;5076296;28;20230;-56
2023/10/20 07:50:26;;;;;;;1.03;1.03;;;;;13.10;92397.00;;;;5076255;28;20278;-54
2023/10/20 07:52:55;;;;;;;1.00;1.00;;;;;13.20;92402.00;;;;5076131;28;20310;-55
2023/10/20 07:55:23;;;;;;;1.23;1.23;;;;;13.20;92397.00;;;;5076354;28;20226;-55
2023/10/20 07:57:50;;;;;;;1.10;1.10;;;;;13.20;92395.00;;;;5076326;28;20225;-55
2023/10/20 08:00:18;;;;;;;1.00;1.00;;;;;13.20;92391.00;;;;5076779;28;20196;-55
2023/10/20 08:02:48;;;;;;;1.60;1.53;;;;;13.30;92410.00;;;;5076351;28;20215;-55
2023/10/20 08:05:16;;;;;;;2.13;1.37;;;;;13.30;92403.00;;;;5076641;28;20219;-55
2023/10/20 08:07:43;;;;;;;1.20;1.20;;;;;13.40;92408.00;;;;5076207;28;20199;-54
2023/10/20 08:10:12;;;;;;;1.03;1.03;;;;;13.30;92423.00;;;;5076657;28;20190;-55
2023/10/20 08:12:39;;;;;;;1.53;1.47;;;;;13.40;92417.00;;;;5075925;28;20213;-55
2023/10/20 08:15:08;;;;;;;1.03;1.03;;;;;13.40;92428.00;;;;5075872;28;20196;-55
2023/10/20 08:17:37;;;;;;;2.20;2.00;;;;;13.40;92435.00;;;;5075738;28;20316;-55
2023/10/20 08:20:09;;;;;;;1.77;1.67;;;;;13.50;92439.00;;;;5076000;28;20278;-55
2023/10/20 08:22:37;;;;;;;1.53;1.43;;;;;13.50;92448.00;;;;5075597;28;20239;-55
2023/10/20 08:25:05;;;;;;;1.27;1.27;;;;;13.70;92463.00;;;;5075150;28;20223;-55
2023/10/20 08:27:34;;;;;;;1.80;1.60;;;;;13.70;92475.00;;;;5075521;28;20278;-55
2023/10/20 08:30:02;;;;;;;1.53;1.43;;;;;13.70;92489.00;;;;5076106;28;20618;-55
2023/10/20 08:32:30;;;;;;;1.20;1.20;;;;;13.80;92508.00;;;;5075401;28;20285;-55
2023/10/20 08:34:58;;;;;;;0.93;0.93;;;;;13.60;92513.00;;;;5075287;28;20184;-55
2023/10/20 08:37:26;;;;;;;1.73;1.63;;;;;13.30;92516.00;;;;5075358;28;20517;-55
2023/10/20 08:39:54;;;;;;;3.30;1.80;;;;;13.30;92518.00;;;;5075818;28;20202;-55
2023/10/20 08:42:22;;;;;;;1.53;1.43;;;;;13.20;92527.00;;;;5075289;28;20207;-55
2023/10/20 08:44:51;;;;;;;1.67;1.57;;;;;13.20;92534.00;;;;5073672;28;20219;-55
2023/10/20 08:47:19;;;;;;;1.57;1.47;;;;;13.30;92536.00;;;;5073867;28;20204;-55
2023/10/20 08:49:48;;;;;;;1.03;1.03;;;;;13.20;92553.00;;;;5075160;28;20195;-55
2023/10/20 08:52:16;;;;;;;1.00;1.00;;;;;13.30;92558.00;;;;5075149;28;20215;-55
2023/10/20 08:54:43;;;;;;;1.60;1.50;;;;;13.40;92533.00;;;;5075484;28;20500;-55
2023/10/20 08:57:12;;;;;;;1.83;1.73;;;;;13.50;92527.00;;;;5075061;28;20198;-55
2023/10/20 08:59:39;;;;;;;1.70;1.60;;;;;13.60;92521.00;;;;5074841;28;20199;-54
2023/10/20 09:02:09;;;;;;;1.33;1.33;;;;;13.60;92539.00;;;;5074640;28;20242;-55
2023/10/20 09:04:37;;;;;;;1.83;1.73;;;;;13.80;92535.00;;;;5074538;28;20238;-55
2023/10/20 09:07:13;;;;;;;0.90;0.90;;;;;13.90;92541.00;;;;5075068;28;20539;-55
2023/10/20 09:09:41;;;;;;;3.70;2.17;;;;;13.90;92547.00;;;;5074666;28;20634;-55
2023/10/20 09:12:09;;;;;;;1.23;1.23;;;;;13.90;92539.00;;;;5074810;28;20286;-55
2023/10/20 09:14:39;;;;;;;1.10;1.10;;;;;14.00;92541.00;;;;5074691;28;20184;-55
2023/10/20 09:17:09;;;;;;;1.43;1.43;;;;;14.10;92546.00;;;;5074822;28;20195;-55
2023/10/20 09:19:37;;;;;;;2.40;2.13;;;;;14.30;92545.00;;;;5074522;28;20216;-55
2023/10/20 09:22:05;;;;;;;2.10;1.47;;;;;14.40;92535.00;;;;5074579;28;20207;-55
2023/10/20 09:24:34;;;;;;;2.30;1.50;;;;;14.60;92535.00;;;;5074538;28;20269;-55
2023/10/20 09:27:02;;;;;;;1.10;1.10;;;;;14.80;92529.00;;;;5074408;28;20192;-55
2023/10/20 09:29:32;;;;;;;1.93;1.83;;;;;15.20;92524.00;;;;5074865;28;20223;-55
2023/10/20 09:32:02;;;;;;;0.90;0.90;;;;;15.30;92520.00;;;;5074264;28;20294;-55
2023/10/20 09:34:31;;;;;;;2.20;1.70;;;;;15.40;92524.00;;;;5073428;28;20475;-55
2023/10/20 09:37:00;;;;;;;1.30;1.20;;;;;15.40;92528.00;;;;5073404;28;20253;-55
2023/10/20 09:39:36;;;;;;;0.90;0.90;;;;;15.20;92546.00;;;;5074088;28;20192;-55
2023/10/20 09:42:06;;;;;;;2.03;1.83;;;;;15.30;92561.00;;;;5076381;28;20237;-55
2023/10/20 09:44:38;;;;;;;1.37;1.27;;;;;15.40;92575.00;;;;5076382;28;20230;-55
2023/10/20 09:47:16;;;;;;;0.90;0.90;;;;;15.30;92571.00;;;;5075294;28;20638;-55
2023/10/20 09:49:45;;;;;;;0.90;0.90;;;;;15.30;92586.00;;;;5075140;28;20199;-55
2023/10/20 09:52:13;;;;;;;0.70;0.70;;;;;15.10;92586.00;;;;5074986;28;20341;-55
2023/10/20 09:54:40;;;;;;;0.97;0.97;;;;;15.20;92578.00;;;;5072887;28;20199;-55
2023/10/20 09:57:09;;;;;;;0.93;0.93;;;;;15.20;92586.00;;;;5074387;28;20195;-54
2023/10/20 09:59:39;;;;;;;1.23;1.23;;;;;15.20;92603.00;;;;5073959;28;20198;-54
2023/10/20 10:02:07;;;;;;;2.53;1.50;;;;;15.40;92601.00;;;;5074040;28;20223;-55
2023/10/20 10:04:37;;;;;;;0.70;0.70;;;;;15.40;92597.00;;;;5074323;28;20206;-55
2023/10/20 10:07:07;;;;;;;0.73;0.73;;;;;15.60;92601.00;;;;5073625;28;20191;-55
2023/10/20 10:09:38;;;;;;;1.97;0.97;;;;;15.70;92606.00;;;;5073940;28;20520;-55
2023/10/20 10:12:10;;;;;;;0.97;0.97;;;;;15.80;92617.00;;;;5072115;28;20313;-55
2023/10/20 10:14:38;;;;;;;0.50;0.50;;;;;16.10;92610.00;;;;5073884;28;20278;-55
2023/10/20 10:17:09;;;;;;;0.90;0.90;;;;;16.50;92633.00;;;;5073954;28;20651;-55
2023/10/20 10:19:48;;;;;;;0.60;0.60;;;;;16.50;92627.00;;;;5074145;28;20182;-55
2023/10/20 10:22:17;;;;;;;0.50;0.50;;;;;16.60;92609.00;;;;5073773;28;20241;-55
2023/10/20 10:24:52;;;;;;;1.13;1.10;;;;;16.60;92630.00;;;;5072190;28;20230;-56
2023/10/20 10:27:22;;;;;;;0.53;0.53;;;;;16.70;92638.00;;;;5073573;28;20189;-55
2023/10/20 10:29:53;;;;;;;0.70;0.70;;;;;16.70;92626.00;;;;5073401;28;20203;-55
2023/10/20 10:32:22;;;;;;;0.60;0.60;;;;;16.80;92642.00;;;;5073380;28;20303;-55
2023/10/20 10:34:52;;;;;;;0.60;0.60;;;;;16.70;92649.00;;;;5073569;28;20280;-55
2023/10/20 10:37:30;;;;;;;0.70;0.70;;;;;16.80;92659.00;;;;5074405;28;20551;-56
2023/10/20 10:40:07;;;;;;;0.70;0.70;;;;;16.70;92661.00;;;;5073869;28;20179;-56
2023/10/20 10:42:39;;;;;;;0.40;0.40;;;;;17.00;92663.00;;;;5073185;28;20234;-56
2023/10/20 10:45:23;;;;;;;1.03;0.97;;;;;16.80;92669.00;;;;5073284;28;20197;-56
2023/10/20 10:47:51;;;;;;;0.60;0.60;;;;;16.50;92684.00;;;;5073360;28;20192;-55
2023/10/20 10:50:20;;;;;;;0.50;0.50;;;;;16.50;92700.00;;;;5073102;28;20195;-56
2023/10/20 10:52:49;;;;;;;0.50;0.50;;;;;16.20;92702.00;;;;5072925;28;20226;-56
2023/10/20 10:55:16;;;;;;;0.50;0.50;;;;;16.00;92705.00;;;;5072968;28;20495;-56
2023/10/20 10:57:44;;;;;;;0.40;0.40;;;;;16.20;92690.00;;;;5073223;28;20188;-55
2023/10/20 11:00:15;;;;;;;0.50;0.50;;;;;15.90;92716.00;;;;5073468;28;20196;-55
2023/10/20 11:02:44;;;;;;;0.50;0.50;;;;;15.90;92694.00;;;;5073082;28;20690;-55
2023/10/20 11:05:11;;;;;;;0.50;0.50;;;;;16.00;92688.00;;;;5073044;28;20219;-55
2023/10/20 11:07:40;;;;;;;0.50;0.50;;;;;15.90;92716.00;;;;5072923;28;20191;-55
2023/10/20 11:10:10;;;;;;;0.53;0.53;;;;;15.90;92720.00;;;;5073042;28;20724;-55
2023/10/20 11:12:37;;;;;;;0.50;0.50;;;;;15.90;92702.00;;;;5072679;28;20574;-55
2023/10/20 11:15:06;;;;;;;0.50;0.50;;;;;15.60;92730.00;;;;5073174;28;20188;-55
2023/10/20 11:17:33;;;;;;;0.50;0.50;;;;;15.60;92715.00;;;;5073251;28;20680;-56
2023/10/20 11:20:01;;;;;;;0.50;0.50;;;;;15.60;92718.00;;;;5072903;28;20213;-53
2023/10/20 11:22:37;;;;;;;0.60;0.60;;;;;15.70;92705.00;;;;5072711;28;20215;-55
2023/10/20 11:25:06;;;;;;;0.40;0.40;;;;;15.70;92727.00;;;;5072737;28;20696;-55
2023/10/20 11:27:42;;;;;;;0.50;0.50;;;;;15.70;92723.00;;;;5072731;28;20188;-55
2023/10/20 11:30:11;;;;;;;0.50;0.50;;;;;15.90;92722.00;;;;5073338;28;20179;-55
2023/10/20 11:32:38;;;;;;;0.50;0.50;;;;;16.10;92729.00;;;;5072632;28;20216;-55
2023/10/20 11:35:07;;;;;;;0.70;0.70;;;;;16.10;92724.00;;;;5072799;28;20192;-56
2023/10/20 11:37:35;;;;;;;0.80;0.80;;;;;16.30;92718.00;;;;5072912;28;20274;-56
2023/10/20 11:40:04;;;;;;;0.60;0.60;;;;;16.50;92723.00;;;;5072763;28;20199;-55
2023/10/20 11:42:32;;;;;;;0.57;0.57;;;;;16.80;92725.00;;;;5072432;28;20254;-55
2023/10/20 11:45:01;;;;;;;0.50;0.50;;;;;16.50;92729.00;;;;5072540;28;20225;-55
2023/10/20 11:47:29;;;;;;;0.50;0.50;;;;;16.30;92735.00;;;;5072524;28;20613;-55
2023/10/20 11:49:57;;;;;;;0.87;0.70;;;;;16.70;92733.00;;;;5072502;28;20270;-55
2023/10/20 11:52:24;;;;;;;0.53;0.53;;;;;16.30;92736.00;;;;5072511;28;20211;-55
2023/10/20 11:54:52;;;;;;;0.47;0.47;;;;;16.00;92741.00;;;;5072585;28;20215;-55
2023/10/20 11:57:21;;;;;;;0.40;0.40;;;;;16.30;92757.00;;;;5072570;28;20198;-56
2023/10/20 11:59:48;;;;;;;0.60;0.60;;;;;16.30;92753.00;;;;5072935;28;20199;-55
2023/10/20 12:02:17;;;;;;;0.80;0.80;;;;;16.60;92769.00;;;;5076268;28;20223;-54
2023/10/20 12:04:45;;;;;;;0.50;0.50;;;;;16.70;92768.00;;;;5077021;28;20187;-54
2023/10/20 12:07:12;;;;;;;0.50;0.50;;;;;16.70;92770.00;;;;5076288;28;20562;-55
2023/10/20 12:09:40;;;;;;;0.50;0.50;;;;;17.00;92770.00;;;;5076356;28;20184;-55
2023/10/20 12:12:08;;;;;;;0.53;0.53;;;;;17.80;92759.00;;;;5074658;28;20215;-55
2023/10/20 12:14:35;;;;;;;0.50;0.50;;;;;18.30;92751.00;;;;5076029;28;20191;-54
2023/10/20 12:17:03;;;;;;;0.50;0.50;;;;;17.70;92770.00;;;;5076091;28;20732;-55
2023/10/20 12:19:32;;;;;;;0.40;0.40;;;;;17.80;92750.00;;;;5075837;28;20192;-55
2023/10/20 12:21:59;;;;;;;0.60;0.60;;;;;18.40;92758.00;;;;5076102;28;20573;-55
2023/10/20 12:24:27;;;;;;;0.50;0.50;;;;;18.70;92764.00;;;;5075694;28;20270;-55
2023/10/20 12:26:55;;;;;;;0.80;0.80;;;;;18.90;92774.00;;;;5074544;28;20215;-55
2023/10/20 12:29:23;;;;;;;0.50;0.50;;;;;18.60;92764.00;;;;5075719;28;20191;-55
2023/10/20 12:31:51;;;;;;;0.50;0.50;;;;;19.10;92763.00;;;;5075599;28;20264;-55
2023/10/20 12:34:18;;;;;;;0.50;0.50;;;;;19.10;92762.00;;;;5075808;28;20592;-55
2023/10/20 12:36:48;;;;;;;0.60;0.60;;;;;18.50;92775.00;;;;5083624;22;20687;-61
2023/10/20 12:39:18;;;;;;;0.40;0.40;;;;;18.20;92772.00;;;;5056743;28;20188;-61
2023/10/20 12:41:45;;;;;;;0.60;0.60;;;;;17.60;92787.00;;;;5056824;28;20288;-61
2023/10/20 12:44:13;;;;;;;0.40;0.40;;;;;17.20;92788.00;;;;5059527;28;20184;-61
2023/10/20 12:46:41;;;;;;;0.50;0.50;;;;;17.00;92792.00;;;;5061090;28;20705;-61
2023/10/20 12:49:09;;;;;;;0.47;0.47;;;;;17.10;92803.00;;;;5061206;28;20290;-61
2023/10/20 12:51:37;;;;;;;0.40;0.40;;;;;16.60;92801.00;;;;5061171;28;20215;-61
2023/10/20 12:54:07;;;;;;;0.50;0.50;;;;;16.30;92814.00;;;;5060162;28;20192;-61